Time;durP1;ratioP1;P1;durP2;ratioP2;P2;SDS_P1;SDS_P2;PMS_P1;PMS_P2;Temp;Humidity;BMP_temperature;BMP_pressure;BME280_temperature;BME280_humidity;BME280_pressure;Samples;Min_cycle;Max_cycle;Signal;HPM_P1;HPM_P2
2022/12/08 00:01:14;;;;;;;27.57;16.97;;;3.80;36.20;;;;;;4948158;28;20478;-63
2022/12/08 00:03:42;;;;;;;27.70;18.17;;;3.70;36.30;;;;;;4949005;28;20481;-62
2022/12/08 00:09:22;;;;;;;27.23;16.93;;;3.70;36.40;;;;;;4948631;28;21015;-62
2022/12/08 00:11:50;;;;;;;27.13;17.63;;;3.70;36.40;;;;;;4949425;28;20562;-62
2022/12/08 00:14:19;;;;;;;23.93;16.10;;;3.70;36.50;;;;;;4947336;28;20487;-62
2022/12/08 00:16:46;;;;;;;24.27;16.03;;;3.70;36.50;;;;;;4947035;28;20467;-62
2022/12/08 00:19:12;;;;;;;24.40;15.90;;;3.70;36.40;;;;;;4951001;28;20470;-62
2022/12/08 00:21:39;;;;;;;26.63;17.00;;;3.70;36.50;;;;;;4946995;28;20881;-62
2022/12/08 00:24:06;;;;;;;25.23;16.40;;;3.70;36.50;;;;;;4946986;28;20462;-63
2022/12/08 00:26:33;;;;;;;26.37;15.70;;;3.70;36.50;;;;;;4950120;28;20462;-62
2022/12/08 00:29:00;;;;;;;21.93;14.60;;;3.70;36.50;;;;;;4950848;28;20462;-62
2022/12/08 00:31:28;;;;;;;24.07;15.90;;;3.70;36.50;;;;;;4946379;28;20479;-63
2022/12/08 00:33:55;;;;;;;23.40;15.63;;;3.70;36.60;;;;;;4961198;23;20493;-72
2022/12/08 00:36:22;;;;;;;25.43;16.13;;;3.80;36.40;;;;;;4964672;28;20565;-72
2022/12/08 00:38:49;;;;;;;23.40;15.63;;;3.70;36.50;;;;;;4961506;28;20474;-72
2022/12/08 00:41:17;;;;;;;25.80;15.47;;;3.70;36.60;;;;;;4964595;28;20466;-72
2022/12/08 00:43:44;;;;;;;24.40;15.20;;;3.70;36.60;;;;;;4960324;28;20486;-72
2022/12/08 00:46:11;;;;;;;25.33;16.80;;;3.70;36.60;;;;;;4964625;28;20462;-72
2022/12/08 00:48:39;;;;;;;32.50;18.60;;;3.70;36.60;;;;;;4965244;28;20996;-71
2022/12/08 00:51:06;;;;;;;29.77;16.97;;;3.80;36.50;;;;;;4963426;28;20477;-72
2022/12/08 00:53:33;;;;;;;24.77;17.53;;;3.80;36.40;;;;;;4965065;28;20485;-72
2022/12/08 00:56:00;;;;;;;22.27;14.90;;;3.80;36.50;;;;;;4959123;28;20462;-72
2022/12/08 00:58:26;;;;;;;28.50;17.83;;;3.70;36.60;;;;;;4962365;28;20756;-72
2022/12/08 01:00:53;;;;;;;25.47;17.73;;;3.70;36.50;;;;;;4962816;28;20492;-72
2022/12/08 01:03:20;;;;;;;25.33;16.40;;;3.70;36.60;;;;;;4967009;28;20501;-72
2022/12/08 01:05:48;;;;;;;28.47;17.80;;;3.70;36.70;;;;;;4959408;28;20457;-72
2022/12/08 01:08:15;;;;;;;26.67;16.10;;;3.70;36.70;;;;;;4957635;28;20467;-72
2022/12/08 01:10:42;;;;;;;24.00;15.97;;;3.70;36.70;;;;;;4960194;28;20557;-72
2022/12/08 01:13:08;;;;;;;27.83;17.60;;;3.70;37.30;;;;;;4962039;28;20489;-72
2022/12/08 01:15:36;;;;;;;25.47;17.30;;;3.70;36.70;;;;;;4961863;28;20466;-72
2022/12/08 01:18:03;;;;;;;21.40;14.03;;;3.70;36.60;;;;;;4965180;28;20457;-72
2022/12/08 01:20:30;;;;;;;26.60;15.67;;;3.70;36.70;;;;;;4963360;28;20497;-72
2022/12/08 01:22:58;;;;;;;23.83;15.13;;;3.70;36.80;;;;;;4964666;28;20484;-72
2022/12/08 01:25:25;;;;;;;23.20;15.70;;;3.70;36.80;;;;;;4962194;28;20454;-72
2022/12/08 01:27:52;;;;;;;23.97;15.40;;;3.60;36.80;;;;;;4962008;28;20971;-72
2022/12/08 01:30:19;;;;;;;22.43;14.20;;;3.60;36.80;;;;;;4962851;28;20532;-71
2022/12/08 01:32:46;;;;;;;21.90;15.33;;;3.60;36.90;;;;;;4957150;28;20505;-72
2022/12/08 01:35:13;;;;;;;21.13;14.23;;;3.70;36.90;;;;;;4963843;28;20477;-72
2022/12/08 01:37:40;;;;;;;24.20;14.60;;;3.60;36.90;;;;;;4961902;28;20499;-72
2022/12/08 01:40:09;;;;;;;27.40;14.60;;;3.60;36.80;;;;;;4961271;28;20466;-72
2022/12/08 01:42:37;;;;;;;24.23;14.90;;;3.70;36.90;;;;;;4958698;28;20941;-72
2022/12/08 01:45:06;;;;;;;22.87;14.70;;;3.60;36.80;;;;;;4960953;28;20461;-72
2022/12/08 01:47:37;;;;;;;24.37;15.80;;;3.60;36.90;;;;;;4960986;28;20458;-72
2022/12/08 01:50:08;;;;;;;26.40;14.60;;;3.70;36.60;;;;;;4961947;28;20469;-72
2022/12/08 01:52:39;;;;;;;24.13;14.93;;;3.60;36.60;;;;;;4959707;28;20462;-72
2022/12/08 01:55:12;;;;;;;22.63;15.40;;;3.60;36.70;;;;;;4962587;28;20591;-72
2022/12/08 01:57:43;;;;;;;26.00;15.20;;;3.60;36.90;;;;;;4961938;28;20470;-72
2022/12/08 02:00:13;;;;;;;22.93;14.33;;;3.60;36.90;;;;;;4956902;28;20466;-72
2022/12/08 02:02:51;;;;;;;23.37;15.23;;;3.60;36.80;;;;;;4962703;28;20485;-72
2022/12/08 02:05:19;;;;;;;22.80;13.17;;;3.50;37.00;;;;;;4966209;28;20468;-72
2022/12/08 02:07:48;;;;;;;23.87;15.70;;;3.50;36.90;;;;;;4966627;28;20533;-72
2022/12/08 02:10:18;;;;;;;23.80;15.80;;;3.50;36.90;;;;;;4968942;28;20465;-72
2022/12/08 02:12:46;;;;;;;23.90;15.20;;;3.50;36.90;;;;;;4965800;28;20985;-72
2022/12/08 02:15:14;;;;;;;21.67;14.03;;;3.50;36.90;;;;;;4963248;28;20482;-72
2022/12/08 02:17:57;;;;;;;23.13;15.10;;;3.40;36.90;;;;;;4970756;28;20457;-72
2022/12/08 02:20:37;;;;;;;25.43;15.80;;;3.40;36.90;;;;;;4962398;28;20557;-72
2022/12/08 02:23:12;;;;;;;28.80;16.30;;;3.40;36.80;;;;;;4964631;28;20485;-72
2022/12/08 02:25:55;;;;;;;23.60;14.73;;;3.30;36.90;;;;;;4961247;28;20841;-72
2022/12/08 02:28:41;;;;;;;22.90;15.20;;;3.30;37.00;;;;;;4968459;28;20453;-72
2022/12/08 02:31:22;;;;;;;23.00;15.63;;;3.20;37.00;;;;;;4961654;28;21302;-73
2022/12/08 02:34:11;;;;;;;22.57;13.90;;;3.10;37.00;;;;;;4969000;28;20492;-72
2022/12/08 02:36:47;;;;;;;24.17;15.67;;;3.10;37.20;;;;;;4961810;28;20539;-72
2022/12/08 02:39:27;;;;;;;24.50;15.30;;;3.10;37.20;;;;;;4963641;28;20458;-72
2022/12/08 02:42:02;;;;;;;22.70;14.37;;;3.10;37.30;;;;;;4966786;28;20450;-72
2022/12/08 02:44:33;;;;;;;23.50;14.23;;;3.00;37.10;;;;;;4964108;28;20469;-73
2022/12/08 02:47:08;;;;;;;23.47;15.07;;;3.00;37.10;;;;;;4963285;28;20462;-73
2022/12/08 02:49:36;;;;;;;27.87;15.30;;;3.00;37.30;;;;;;4968534;28;20544;-72
2022/12/08 02:52:28;;;;;;;21.40;14.60;;;3.00;37.20;;;;;;4965878;28;20477;-72
2022/12/08 02:54:58;;;;;;;23.00;14.67;;;3.00;37.30;;;;;;4963598;28;20489;-72
2022/12/08 02:57:38;;;;;;;24.53;14.60;;;3.00;37.30;;;;;;4964917;28;20465;-72
2022/12/08 03:00:08;;;;;;;21.40;13.53;;;3.00;37.40;;;;;;4964287;28;20990;-72
2022/12/08 03:02:44;;;;;;;21.37;13.80;;;3.00;37.30;;;;;;4963554;28;20481;-72
2022/12/08 03:05:23;;;;;;;23.53;14.20;;;3.00;38.00;;;;;;4959689;28;20489;-72
2022/12/08 03:07:55;;;;;;;23.33;14.30;;;2.90;37.50;;;;;;4963780;28;20458;-72
2022/12/08 03:10:29;;;;;;;20.83;14.53;;;2.90;37.50;;;;;;4965791;28;20472;-72
2022/12/08 03:13:02;;;;;;;22.87;14.73;;;2.90;37.50;;;;;;4963785;28;20470;-72
2022/12/08 03:15:31;;;;;;;26.30;14.77;;;2.90;37.40;;;;;;4967715;28;20488;-72
2022/12/08 03:17:59;;;;;;;21.50;13.60;;;2.90;37.50;;;;;;4964708;28;20484;-72
2022/12/08 03:20:30;;;;;;;22.13;14.60;;;2.80;37.40;;;;;;4965835;28;20474;-72
2022/12/08 03:22:59;;;;;;;22.07;14.30;;;2.80;37.50;;;;;;4961907;28;20469;-72
2022/12/08 03:25:30;;;;;;;21.60;13.97;;;2.80;37.50;;;;;;4966697;28;20457;-72
2022/12/08 03:27:56;;;;;;;22.63;13.40;;;2.80;37.60;;;;;;4965117;28;21158;-72
2022/12/08 03:30:23;;;;;;;20.73;12.87;;;2.70;37.60;;;;;;4964656;28;20460;-72
2022/12/08 03:32:55;;;;;;;22.90;14.33;;;2.70;37.60;;;;;;4968605;28;20473;-72
2022/12/08 03:35:25;;;;;;;23.57;13.70;;;2.70;37.70;;;;;;4967718;28;20489;-72
2022/12/08 03:38:02;;;;;;;19.23;12.07;;;2.80;37.90;;;;;;4967257;28;20458;-72
2022/12/08 03:40:29;;;;;;;24.30;13.20;;;2.80;38.00;;;;;;4964689;28;20461;-72
2022/12/08 03:42:56;;;;;;;22.90;13.47;;;2.80;37.80;;;;;;4962730;28;20466;-72
2022/12/08 03:45:23;;;;;;;25.00;14.43;;;2.70;37.80;;;;;;4968838;28;20475;-72
2022/12/08 03:47:50;;;;;;;23.80;14.43;;;2.80;37.80;;;;;;4963595;28;20474;-72
2022/12/08 03:50:17;;;;;;;22.03;13.53;;;2.70;37.70;;;;;;4971110;28;20461;-72
2022/12/08 03:52:43;;;;;;;20.20;13.33;;;2.70;37.50;;;;;;4973829;28;21008;-72
2022/12/08 03:55:12;;;;;;;24.93;14.30;;;2.60;37.30;;;;;;4964650;28;20493;-72
2022/12/08 03:57:39;;;;;;;18.73;12.97;;;2.60;37.30;;;;;;4963265;28;20466;-72
2022/12/08 04:00:14;;;;;;;19.27;13.00;;;2.50;37.30;;;;;;4966735;28;20920;-72
2022/12/08 04:02:45;;;;;;;21.40;13.20;;;2.50;37.30;;;;;;4962069;28;20572;-72
2022/12/08 04:05:13;;;;;;;20.70;13.50;;;2.40;37.40;;;;;;4967201;28;20458;-72
2022/12/08 04:07:40;;;;;;;21.60;14.20;;;2.40;37.40;;;;;;4967902;28;20493;-72
2022/12/08 04:10:12;;;;;;;22.33;13.60;;;2.30;37.50;;;;;;4968203;28;20561;-72
2022/12/08 04:12:40;;;;;;;20.57;12.83;;;2.30;37.50;;;;;;4965108;28;20892;-72
2022/12/08 04:15:08;;;;;;;20.23;11.80;;;2.20;37.30;;;;;;4962298;28;20489;-72
2022/12/08 04:17:37;;;;;;;19.00;12.13;;;2.20;37.30;;;;;;4964201;28;20554;-72
2022/12/08 04:20:07;;;;;;;21.47;12.93;;;2.10;37.30;;;;;;4965544;28;20553;-72
2022/12/08 04:22:34;;;;;;;20.90;12.77;;;2.00;37.30;;;;;;4962476;28;20471;-73
2022/12/08 04:25:01;;;;;;;19.27;11.77;;;2.00;37.50;;;;;;4965190;28;20473;-72
2022/12/08 04:27:33;;;;;;;22.23;12.53;;;1.90;37.50;;;;;;4966227;28;20464;-73
2022/12/08 04:30:14;;;;;;;17.87;12.47;;;1.90;37.50;;;;;;4958548;28;20468;-70
2022/12/08 04:32:41;;;;;;;23.67;13.73;;;1.80;37.50;;;;;;4965457;28;20462;-72
2022/12/08 04:35:09;;;;;;;23.50;13.23;;;1.80;37.60;;;;;;4962128;28;20525;-72
2022/12/08 04:37:36;;;;;;;20.17;12.40;;;1.70;37.60;;;;;;4967677;28;20462;-72
2022/12/08 04:40:04;;;;;;;21.97;13.20;;;1.70;37.80;;;;;;4961507;28;20473;-72
2022/12/08 04:42:33;;;;;;;19.10;12.20;;;1.70;38.00;;;;;;4964241;28;20844;-72
2022/12/08 04:45:00;;;;;;;24.10;13.70;;;1.60;38.00;;;;;;4961456;28;20540;-72
2022/12/08 04:47:28;;;;;;;21.07;13.17;;;1.60;38.10;;;;;;4962339;28;20988;-72
2022/12/08 04:49:55;;;;;;;24.90;14.23;;;1.60;38.30;;;;;;4965087;28;20552;-72
2022/12/08 04:52:26;;;;;;;19.90;12.13;;;1.60;38.40;;;;;;4964821;28;20485;-73
2022/12/08 04:54:54;;;;;;;23.93;14.77;;;1.50;38.30;;;;;;4965061;28;20521;-72
2022/12/08 04:57:21;;;;;;;26.43;15.33;;;1.50;38.30;;;;;;4965863;28;20468;-72
2022/12/08 04:59:53;;;;;;;22.30;14.40;;;1.50;39.10;;;;;;4962705;28;20473;-74
2022/12/08 05:02:20;;;;;;;22.30;14.30;;;1.50;38.50;;;;;;4961171;28;20492;-73
2022/12/08 05:04:48;;;;;;;24.80;14.17;;;1.50;38.40;;;;;;4961883;28;20482;-72
2022/12/08 05:07:15;;;;;;;23.83;13.03;;;1.40;38.20;;;;;;4958462;28;20473;-69
2022/12/08 05:09:43;;;;;;;21.50;13.60;;;1.40;38.20;;;;;;4962932;28;20465;-70
2022/12/08 05:12:11;;;;;;;22.17;13.20;;;1.40;38.20;;;;;;4959472;28;20473;-71
2022/12/08 05:14:37;;;;;;;24.40;15.57;;;1.40;38.20;;;;;;4963455;28;21036;-71
2022/12/08 05:17:06;;;;;;;26.40;14.30;;;1.30;38.30;;;;;;4961876;28;20465;-71
2022/12/08 05:19:33;;;;;;;23.00;13.70;;;1.40;38.40;;;;;;4966393;28;20465;-70
2022/12/08 05:22:00;;;;;;;28.63;15.23;;;1.40;38.40;;;;;;4965725;28;21030;-70
2022/12/08 05:24:27;;;;;;;25.80;13.90;;;1.40;38.40;;;;;;4964261;28;20564;-71
2022/12/08 05:26:56;;;;;;;24.30;13.03;;;1.30;38.50;;;;;;4968109;28;20473;-70
2022/12/08 05:29:23;;;;;;;32.00;20.27;;;1.30;38.80;;;;;;4967219;28;20465;-70
2022/12/08 05:31:50;;;;;;;29.70;18.77;;;1.30;39.00;;;;;;4962317;28;21135;-70
2022/12/08 05:34:19;;;;;;;29.67;17.50;;;1.30;39.00;;;;;;4963685;28;20489;-70
2022/12/08 05:36:46;;;;;;;27.30;17.13;;;1.30;39.00;;;;;;4957476;28;20585;-70
2022/12/08 05:39:14;;;;;;;29.70;19.10;;;1.30;39.70;;;;;;4962663;28;20461;-67
2022/12/08 05:41:41;;;;;;;29.20;18.97;;;1.30;39.40;;;;;;4966286;28;20540;-68
2022/12/08 05:44:10;;;;;;;31.73;19.20;;;1.30;39.40;;;;;;4964848;28;20947;-68
2022/12/08 05:46:38;;;;;;;30.00;16.53;;;1.30;39.30;;;;;;4964034;28;20498;-66
2022/12/08 05:49:05;;;;;;;28.43;16.13;;;1.20;39.10;;;;;;4965843;28;20467;-66
2022/12/08 05:51:34;;;;;;;24.87;15.53;;;1.20;39.00;;;;;;4966457;28;20546;-67
2022/12/08 05:54:01;;;;;;;29.80;17.37;;;1.20;39.00;;;;;;4962879;28;20542;-73
2022/12/08 05:56:28;;;;;;;27.67;16.60;;;1.20;38.90;;;;;;4971877;28;20703;-73
2022/12/08 05:58:55;;;;;;;27.60;16.77;;;1.10;38.90;;;;;;4964416;28;20516;-78
2022/12/08 06:01:24;;;;;;;29.17;16.60;;;1.10;38.90;;;;;;4966603;28;20998;-78
2022/12/08 06:03:51;;;;;;;30.53;16.73;;;1.10;39.00;;;;;;4961642;28;20492;-68
2022/12/08 06:06:18;;;;;;;26.30;17.73;;;1.10;38.90;;;;;;4966847;28;20449;-66
2022/12/08 06:08:50;;;;;;;30.77;18.40;;;1.10;39.00;;;;;;4965879;28;21205;-68
2022/12/08 06:11:34;;;;;;;29.77;19.50;;;1.10;39.00;;;;;;4964045;28;20489;-68
2022/12/08 06:14:33;;;;;;;28.13;16.73;;;1.00;38.90;;;;;;4965855;28;20487;-69
2022/12/08 06:17:01;;;;;;;24.90;16.00;;;1.00;39.10;;;;;;4964906;28;20493;-76
2022/12/08 06:19:28;;;;;;;26.67;15.50;;;1.00;39.00;;;;;;4965826;28;20552;-73
2022/12/08 06:21:55;;;;;;;26.33;15.67;;;1.00;39.00;;;;;;4966470;28;20470;-72
2022/12/08 06:24:23;;;;;;;27.57;16.83;;;0.90;39.00;;;;;;4966562;28;20477;-71
2022/12/08 06:26:50;;;;;;;35.37;18.30;;;0.90;39.10;;;;;;4967804;28;21012;-72
2022/12/08 06:29:16;;;;;;;33.80;20.97;;;0.90;39.20;;;;;;4968982;28;20556;-71
2022/12/08 06:31:43;;;;;;;40.37;22.80;;;0.90;39.20;;;;;;4966363;28;21126;-72
2022/12/08 06:34:11;;;;;;;38.20;24.37;;;0.90;39.40;;;;;;4966571;28;20513;-72
2022/12/08 06:36:37;;;;;;;39.13;21.90;;;0.90;39.40;;;;;;4982429;23;20484;-70
2022/12/08 06:39:04;;;;;;;37.90;22.60;;;1.00;39.40;;;;;;4984425;28;20876;-67
2022/12/08 06:42:42;;;;;;;39.67;25.70;;;0.90;39.50;;;;;;4981529;28;20456;-65
2022/12/08 06:44:19;;;;;;;35.13;20.73;;;0.90;39.50;;;;;;4982043;28;20835;-69
2022/12/08 06:46:46;;;;;;;30.50;17.67;;;0.90;39.50;;;;;;4984101;28;20486;-69
2022/12/08 06:49:13;;;;;;;30.23;18.83;;;0.90;39.60;;;;;;4984667;28;20461;-65
2022/12/08 06:51:39;;;;;;;28.63;17.13;;;0.80;39.70;;;;;;4983166;28;20458;-72
2022/12/08 06:54:06;;;;;;;33.80;18.10;;;0.90;40.10;;;;;;4986726;28;20472;-71
2022/12/08 06:56:34;;;;;;;27.47;15.73;;;0.90;40.00;;;;;;4980474;28;20484;-69
2022/12/08 06:59:01;;;;;;;27.23;16.30;;;0.90;40.10;;;;;;4982361;28;20469;-68
2022/12/08 07:01:28;;;;;;;26.80;14.63;;;0.90;40.10;;;;;;4984782;28;20487;-69
2022/12/08 07:03:55;;;;;;;28.10;17.13;;;0.90;40.10;;;;;;4971566;28;20461;-71
2022/12/08 07:06:23;;;;;;;23.80;15.77;;;0.90;40.00;;;;;;4980419;28;20975;-69
2022/12/08 07:08:50;;;;;;;31.93;18.00;;;0.90;40.10;;;;;;4975735;28;20469;-73
2022/12/08 07:11:17;;;;;;;30.43;16.20;;;0.90;39.90;;;;;;4977658;28;20465;-66
2022/12/08 07:13:45;;;;;;;27.60;16.77;;;0.90;40.00;;;;;;4980712;28;20465;-62
2022/12/08 07:16:13;;;;;;;26.80;17.50;;;0.90;40.60;;;;;;4978811;28;20480;-63
2022/12/08 07:18:40;;;;;;;28.37;16.70;;;1.00;39.90;;;;;;4980381;28;20476;-67
2022/12/08 07:21:09;;;;;;;27.70;17.33;;;1.00;39.80;;;;;;4981361;28;20515;-66
2022/12/08 07:23:36;;;;;;;27.90;16.97;;;1.00;39.90;;;;;;4977948;28;20464;-71
2022/12/08 07:26:06;;;;;;;29.40;18.57;;;1.00;39.80;;;;;;4980931;28;20460;-72
2022/12/08 07:28:34;;;;;;;30.20;18.33;;;1.00;39.80;;;;;;4979684;28;20465;-72
2022/12/08 07:31:02;;;;;;;30.10;18.57;;;1.10;39.80;;;;;;4980523;28;20488;-69
2022/12/08 07:33:29;;;;;;;27.13;16.20;;;1.10;39.70;;;;;;4982389;28;20461;-66
2022/12/08 07:35:57;;;;;;;28.43;16.53;;;1.10;39.60;;;;;;4986517;28;21187;-68
2022/12/08 07:38:24;;;;;;;25.57;14.80;;;1.20;39.60;;;;;;4983790;28;20500;-69
2022/12/08 07:40:51;;;;;;;28.97;15.37;;;1.20;39.60;;;;;;4987223;28;20475;-67
2022/12/08 07:43:19;;;;;;;22.73;14.20;;;1.20;39.50;;;;;;4976470;28;21004;-65
2022/12/08 07:45:46;;;;;;;22.40;13.97;;;1.10;39.60;;;;;;4984817;28;20476;-65
2022/12/08 07:48:14;;;;;;;26.60;15.43;;;1.10;39.50;;;;;;4984494;28;20477;-67
2022/12/08 07:50:41;;;;;;;24.87;15.07;;;1.20;39.50;;;;;;4981259;28;20555;-64
2022/12/08 07:53:08;;;;;;;28.00;15.03;;;1.10;39.40;;;;;;4983880;28;21246;-67
2022/12/08 07:55:39;;;;;;;25.37;15.70;;;1.10;39.40;;;;;;4981324;28;20484;-64
2022/12/08 07:58:06;;;;;;;31.67;16.70;;;1.10;39.40;;;;;;4984474;28;20488;-64
2022/12/08 08:00:33;;;;;;;24.73;14.83;;;1.10;39.30;;;;;;4981055;28;20473;-71
2022/12/08 08:02:59;;;;;;;26.83;14.70;;;1.10;39.30;;;;;;4978057;28;20459;-71
2022/12/08 08:05:28;;;;;;;23.67;14.50;;;1.10;39.20;;;;;;4983703;28;20457;-71
2022/12/08 08:07:54;;;;;;;25.40;14.67;;;1.10;39.20;;;;;;4983696;28;20488;-71
2022/12/08 08:10:21;;;;;;;24.87;13.87;;;1.10;39.20;;;;;;4986782;28;20460;-72
2022/12/08 08:12:48;;;;;;;21.60;13.30;;;1.10;39.10;;;;;;4981788;28;20845;-71
2022/12/08 08:15:16;;;;;;;21.93;14.43;;;1.20;39.10;;;;;;4986810;28;20481;-71
2022/12/08 08:17:42;;;;;;;24.77;15.33;;;1.10;39.00;;;;;;4985372;28;20480;-71
2022/12/08 08:20:11;;;;;;;27.67;14.57;;;1.20;39.00;;;;;;4985399;28;20981;-76
2022/12/08 08:22:39;;;;;;;24.97;14.90;;;1.20;39.00;;;;;;4980135;28;20460;-71
2022/12/08 08:25:06;;;;;;;28.17;15.10;;;1.30;38.80;;;;;;4983263;28;20460;-71
2022/12/08 08:27:33;;;;;;;26.33;15.40;;;1.40;38.80;;;;;;4984931;28;21240;-70
2022/12/08 08:30:00;;;;;;;38.03;15.57;;;1.50;38.90;;;;;;4984075;28;20975;-74
2022/12/08 08:32:26;;;;;;;27.27;14.93;;;1.50;38.90;;;;;;4983922;28;20559;-75
2022/12/08 08:34:53;;;;;;;26.43;15.30;;;1.60;38.80;;;;;;4984701;28;20468;-78
2022/12/08 08:37:20;;;;;;;25.17;15.57;;;1.70;38.80;;;;;;4982829;28;20511;-78
2022/12/08 08:39:48;;;;;;;26.03;15.47;;;1.80;38.90;;;;;;4985444;28;20475;-72
2022/12/08 08:42:15;;;;;;;23.93;14.53;;;1.90;39.00;;;;;;4981816;28;20473;-71
2022/12/08 08:44:41;;;;;;;33.87;15.80;;;2.00;39.00;;;;;;4984446;28;20460;-71
2022/12/08 08:47:08;;;;;;;23.23;14.37;;;2.10;38.80;;;;;;4983451;28;20480;-72
2022/12/08 08:49:36;;;;;;;28.63;17.70;;;2.20;38.50;;;;;;4982791;28;20460;-73
2022/12/08 08:52:04;;;;;;;27.87;15.60;;;2.30;38.30;;;;;;4980938;28;20492;-64
2022/12/08 08:54:32;;;;;;;26.00;15.10;;;2.40;38.10;;;;;;4983697;28;20519;-72
2022/12/08 08:57:01;;;;;;;22.30;15.20;;;2.40;37.90;;;;;;4983007;28;21019;-72
2022/12/08 08:59:28;;;;;;;21.90;14.80;;;2.50;37.70;;;;;;4982178;28;20464;-72
2022/12/08 09:01:55;;;;;;;22.77;14.90;;;2.50;37.40;;;;;;4979346;28;21019;-71
2022/12/08 09:04:22;;;;;;;21.10;14.20;;;2.60;37.20;;;;;;4978860;28;20487;-72
2022/12/08 09:06:49;;;;;;;21.20;13.30;;;2.60;36.80;;;;;;4979618;28;20484;-71
2022/12/08 09:09:16;;;;;;;24.67;13.73;;;2.70;36.90;;;;;;4980937;28;20452;-72
2022/12/08 09:11:43;;;;;;;23.30;14.90;;;2.70;36.80;;;;;;4977452;28;20543;-71
2022/12/08 09:14:13;;;;;;;23.70;14.77;;;2.70;36.70;;;;;;4980491;28;20461;-72
2022/12/08 09:16:40;;;;;;;24.60;14.33;;;2.80;36.50;;;;;;4983705;28;20501;-71
2022/12/08 09:19:07;;;;;;;22.87;15.00;;;2.80;36.40;;;;;;4983401;28;20467;-72
2022/12/08 09:21:34;;;;;;;21.70;15.23;;;2.80;36.40;;;;;;4981487;28;20464;-72
2022/12/08 09:24:00;;;;;;;21.43;15.30;;;2.80;36.40;;;;;;4980619;28;20847;-72
2022/12/08 09:26:28;;;;;;;22.20;14.60;;;2.90;36.40;;;;;;4984459;28;21229;-71
2022/12/08 09:28:56;;;;;;;23.70;15.70;;;2.90;36.40;;;;;;4985408;28;20547;-71
2022/12/08 09:31:24;;;;;;;20.10;14.23;;;3.00;36.40;;;;;;4984482;28;20472;-70
2022/12/08 09:33:51;;;;;;;21.33;13.97;;;3.00;36.30;;;;;;4983006;28;20770;-71
2022/12/08 09:36:18;;;;;;;23.10;15.20;;;3.10;36.20;;;;;;4983888;28;20472;-69
2022/12/08 09:38:46;;;;;;;24.20;16.30;;;3.20;36.00;;;;;;4980019;28;20474;-71
2022/12/08 09:41:17;;;;;;;29.57;17.90;;;3.20;35.90;;;;;;4974014;28;20462;-70
2022/12/08 09:43:59;;;;;;;25.20;17.33;;;3.20;35.50;;;;;;4976783;28;20695;-71
2022/12/08 09:46:31;;;;;;;28.73;18.77;;;3.30;35.60;;;;;;4983253;28;20459;-71
2022/12/08 09:49:00;;;;;;;34.63;21.50;;;3.30;35.50;;;;;;4982575;28;20467;-70
2022/12/08 09:51:32;;;;;;;28.73;19.00;;;3.30;35.60;;;;;;4986132;28;20456;-70
2022/12/08 09:54:03;;;;;;;23.70;16.00;;;3.30;35.30;;;;;;4979403;28;20464;-64
2022/12/08 09:56:34;;;;;;;20.37;14.80;;;3.40;35.30;;;;;;4981561;28;20484;-65
2022/12/08 09:59:05;;;;;;;20.70;15.80;;;3.50;35.00;;;;;;4983027;28;20480;-66
2022/12/08 10:01:37;;;;;;;21.27;15.10;;;3.60;35.20;;;;;;4978802;28;20473;-67
2022/12/08 10:04:06;;;;;;;23.10;16.40;;;3.60;35.20;;;;;;4978382;28;20507;-69
2022/12/08 10:06:38;;;;;;;21.30;14.87;;;3.70;35.20;;;;;;4981891;28;20480;-63
2022/12/08 10:09:18;;;;;;;23.93;16.00;;;3.70;35.10;;;;;;4981330;28;20914;-70
2022/12/08 10:11:53;;;;;;;20.40;14.60;;;3.80;34.90;;;;;;4981792;28;20468;-69
2022/12/08 10:14:28;;;;;;;24.50;15.40;;;3.80;34.60;;;;;;4984087;28;20999;-67
2022/12/08 10:17:01;;;;;;;22.40;14.77;;;3.80;34.70;;;;;;4982174;28;20494;-67
2022/12/08 10:19:28;;;;;;;22.70;15.10;;;3.80;34.60;;;;;;4981711;28;20995;-70
2022/12/08 10:21:57;;;;;;;24.53;16.67;;;3.80;34.60;;;;;;4984107;28;20467;-69
2022/12/08 10:24:32;;;;;;;27.60;15.87;;;3.80;35.00;;;;;;4986589;28;20465;-69
2022/12/08 10:27:00;;;;;;;25.47;15.20;;;3.80;34.50;;;;;;4982611;28;20478;-74
2022/12/08 10:29:26;;;;;;;22.80;14.20;;;3.80;34.50;;;;;;4987326;28;20456;-71
2022/12/08 10:31:53;;;;;;;23.80;16.00;;;3.80;34.60;;;;;;4985348;28;20477;-71
2022/12/08 10:34:23;;;;;;;21.43;15.20;;;3.80;34.60;;;;;;4982491;28;20464;-68
2022/12/08 10:36:51;;;;;;;29.60;17.97;;;3.90;34.70;;;;;;4981815;28;20555;-69
2022/12/08 10:39:30;;;;;;;26.30;16.30;;;3.90;34.30;;;;;;4985987;28;20465;-68
2022/12/08 10:42:02;;;;;;;23.93;15.40;;;3.80;34.30;;;;;;4981813;28;20555;-67
2022/12/08 10:44:29;;;;;;;25.93;15.70;;;3.80;34.40;;;;;;4984140;28;20460;-71
2022/12/08 10:46:56;;;;;;;27.33;16.20;;;3.80;34.40;;;;;;4983643;28;20476;-70
2022/12/08 10:49:31;;;;;;;25.90;16.90;;;3.80;34.30;;;;;;4987839;28;20464;-65
2022/12/08 10:51:58;;;;;;;32.33;19.37;;;3.80;34.10;;;;;;4986149;28;20464;-74
2022/12/08 10:54:29;;;;;;;26.90;16.90;;;3.70;34.20;;;;;;4982664;28;20461;-69
2022/12/08 10:56:57;;;;;;;27.23;17.07;;;3.70;34.30;;;;;;4984677;28;20488;-68
2022/12/08 10:59:25;;;;;;;26.60;16.33;;;3.70;34.40;;;;;;4977164;28;20466;-68
2022/12/08 11:01:54;;;;;;;26.57;17.03;;;3.60;34.50;;;;;;4984099;28;21016;-71
2022/12/08 11:04:23;;;;;;;105.10;66.30;;;3.70;34.70;;;;;;4988764;28;20465;-70
2022/12/08 11:06:53;;;;;;;57.23;41.10;;;3.70;34.10;;;;;;4984564;28;20570;-74
2022/12/08 11:09:37;;;;;;;68.17;45.90;;;3.70;34.10;;;;;;4978980;28;20479;-75
2022/12/08 11:12:09;;;;;;;74.77;49.07;;;3.60;34.30;;;;;;4983714;28;20494;-74
2022/12/08 11:14:48;;;;;;;52.33;35.17;;;3.50;34.50;;;;;;4983444;28;20961;-76
2022/12/08 11:17:17;;;;;;;50.07;32.40;;;3.50;35.00;;;;;;4983580;28;20488;-75
2022/12/08 11:19:56;;;;;;;36.33;24.13;;;3.50;34.90;;;;;;4980696;28;20471;-75
2022/12/08 11:22:26;;;;;;;31.70;22.03;;;3.50;35.10;;;;;;4987465;28;20858;-75
2022/12/08 11:25:01;;;;;;;27.93;20.10;;;3.50;35.10;;;;;;4977170;28;20456;-75
2022/12/08 11:27:28;;;;;;;29.17;19.47;;;3.50;35.20;;;;;;4977984;28;20480;-75
2022/12/08 11:29:55;;;;;;;29.93;19.23;;;3.50;35.20;;;;;;4985262;28;20487;-71
2022/12/08 11:32:22;;;;;;;29.73;19.87;;;3.50;35.20;;;;;;4982784;28;20508;-81
2022/12/08 11:34:55;;;;;;;31.70;21.67;;;3.50;35.40;;;;;;4983043;28;20465;-80
2022/12/08 11:37:30;;;;;;;34.80;21.30;;;3.60;35.50;;;;;;4981127;28;20539;-70
2022/12/08 11:40:02;;;;;;;31.20;23.30;;;3.50;35.40;;;;;;4984874;28;20514;-74
2022/12/08 11:42:35;;;;;;;32.30;21.20;;;3.60;35.20;;;;;;4984466;28;20476;-75
2022/12/08 11:45:07;;;;;;;32.23;21.33;;;3.60;35.20;;;;;;4982970;28;20469;-75
2022/12/08 11:47:42;;;;;;;28.70;22.07;;;3.60;35.20;;;;;;4986311;28;21004;-75
2022/12/08 11:50:20;;;;;;;32.83;22.43;;;3.70;35.20;;;;;;4982310;28;20464;-74
2022/12/08 11:52:50;;;;;;;33.43;22.73;;;3.60;35.20;;;;;;4981324;28;20480;-73
2022/12/08 11:55:31;;;;;;;37.43;24.50;;;3.60;35.20;;;;;;4983115;28;20985;-74
2022/12/08 11:58:02;;;;;;;34.87;22.40;;;3.70;35.20;;;;;;4984349;28;20512;-73
2022/12/08 12:00:29;;;;;;;35.53;22.20;;;3.70;35.10;;;;;;4981113;28;20838;-73
2022/12/08 12:03:01;;;;;;;34.07;24.10;;;3.60;35.30;;;;;;4977248;28;20976;-74
2022/12/08 12:05:40;;;;;;;34.50;23.33;;;3.60;35.70;;;;;;4982396;28;20987;-71
2022/12/08 12:08:29;;;;;;;32.07;23.13;;;3.70;35.90;;;;;;4981255;28;20709;-69
2022/12/08 12:11:07;;;;;;;28.90;21.03;;;3.70;36.10;;;;;;4977764;28;20771;-76
2022/12/08 12:13:56;;;;;;;33.23;22.40;;;3.80;35.60;;;;;;4983718;28;20559;-75
2022/12/08 12:16:37;;;;;;;34.17;21.60;;;3.80;35.40;;;;;;4981691;28;20757;-74
2022/12/08 12:19:08;;;;;;;28.50;20.00;;;3.80;35.50;;;;;;4984210;28;20468;-71
2022/12/08 12:21:39;;;;;;;28.70;19.27;;;3.80;35.60;;;;;;4984717;28;20472;-75
2022/12/08 12:24:14;;;;;;;28.97;17.60;;;3.80;35.70;;;;;;4988158;28;20570;-76
2022/12/08 12:26:57;;;;;;;24.87;17.30;;;3.90;35.70;;;;;;4985458;28;20471;-77
2022/12/08 12:29:26;;;;;;;29.73;18.13;;;3.90;35.70;;;;;;4985846;28;20605;-85
2022/12/08 12:31:57;;;;;;;29.17;16.80;;;3.90;35.60;;;;;;4983136;28;20495;-74
2022/12/08 12:34:27;;;;;;;23.57;16.20;;;4.00;35.60;;;;;;4981578;28;20471;-70
2022/12/08 12:36:57;;;;;;;24.00;15.07;;;4.00;35.60;;;;;;4976749;28;20499;-70
2022/12/08 12:39:28;;;;;;;19.90;13.97;;;4.10;35.60;;;;;;4978558;28;20992;-70
2022/12/08 12:41:58;;;;;;;24.77;15.27;;;4.10;35.60;;;;;;4977267;28;20469;-68
2022/12/08 12:44:42;;;;;;;26.50;15.87;;;4.10;35.50;;;;;;4979403;28;20487;-72
2022/12/08 12:47:46;;;;;;;25.60;13.83;;;4.20;35.50;;;;;;4985718;28;21032;-71
2022/12/08 12:50:15;;;;;;;20.80;13.70;;;4.20;35.30;;;;;;4985077;28;20465;-69
2022/12/08 12:52:48;;;;;;;21.00;13.30;;;4.30;35.10;;;;;;4980261;28;20523;-74